KEWK/EWK METAR and TAF weather

Enter ICAO airport designator
Station Type Date Time Source
KEWK METAR 2020/03/28 13:56 UTC NOAA

KEWK 281356Z AUTO 23020G28KT 10SM CLR 13/04 A2952 RMK AO2 PK WND 23029/1343 SLP991 T01330039


Station Type Date Time Source
KEWK Decoded METAR 2020/03/28 13:56 UTC NOAA

Newton, Newton City/County Airport, KS, United States (KEWK) 38-03N 097-17W
Mar 28, 2020 - 09:56 AM EDT / 2020.03.28 1356 UTC
Wind: from the SW (230 degrees) at 23 MPH (20 KT) gusting to 32 MPH (28 KT):0
Visibility: 10 mile(s):0
Sky conditions: clear
Temperature: 55.9 F (13.3 C)
Dew Point: 39.0 F (3.9 C)
Relative Humidity: 52%
Pressure (altimeter): 29.52 in. Hg (999 hPa)
ob: KEWK 281356Z AUTO 23020G28KT 10SM CLR 13/04 A2952 RMK AO2 PK WND 23029/1343 SLP991 T01330039
cycle: 14

Station Type Date Time Source
KEWK TAF UTC NOAA

Error!

Example: see airport list